Time;durP1;ratioP1;P1;durP2;ratioP2;P2;SDS_P1;SDS_P2;PMS_P1;PMS_P2;Temp;Humidity;BMP_temperature;BMP_pressure;BME280_temperature;BME280_humidity;BME280_pressure;Samples;Min_cycle;Max_cycle;Signal;HPM_P1;HPM_P2
2024/01/31 00:02:06;;;;;;;;;;;17.90;52.00;;;;;;7399962;19;1465;-62
2024/01/31 00:04:32;;;;;;;;;;;17.90;52.10;;;;;;7395778;19;1671;-62
2024/01/31 00:06:57;;;;;;;;;;;17.80;52.10;;;;;;7399991;19;1657;-62
2024/01/31 00:09:22;;;;;;;;;;;17.80;52.10;;;;;;7395095;19;1841;-62
2024/01/31 00:11:48;;;;;;;;;;;17.80;52.20;;;;;;7396592;19;1526;-61
2024/01/31 00:14:16;;;;;;;;;;;17.80;52.40;;;;;;7395556;19;1067;-62
2024/01/31 00:16:43;;;;;;;;;;;17.70;52.40;;;;;;7398189;19;1687;-62
2024/01/31 00:19:08;;;;;;;;;;;17.70;52.70;;;;;;7399263;19;1720;-62
2024/01/31 00:21:33;;;;;;;;;;;17.70;52.40;;;;;;7395028;19;1443;-62
2024/01/31 00:23:59;;;;;;;;;;;17.60;52.40;;;;;;7397597;19;1684;-62
2024/01/31 00:26:24;;;;;;;;;;;17.60;52.50;;;;;;7395523;19;1552;-62
2024/01/31 00:28:50;;;;;;;;;;;17.60;52.40;;;;;;7400418;19;1530;-62
2024/01/31 00:31:15;;;;;;;;;;;17.60;52.40;;;;;;7395615;19;1814;-62
2024/01/31 00:33:40;;;;;;;;;;;17.60;52.40;;;;;;7397546;19;1497;-61
2024/01/31 00:36:06;;;;;;;;;;;17.60;52.50;;;;;;7393592;19;1481;-62
2024/01/31 00:38:31;;;;;;;;;;;17.50;52.50;;;;;;7396082;19;1472;-62
2024/01/31 00:40:57;;;;;;;;;;;17.60;52.60;;;;;;7395317;19;1868;-62
2024/01/31 00:43:22;;;;;;;;;;;17.60;52.50;;;;;;7396777;19;1526;-62
2024/01/31 00:45:48;;;;;;;;;;;17.50;52.50;;;;;;7400422;19;1653;-62
2024/01/31 00:48:14;;;;;;;;;;;17.50;52.50;;;;;;7398072;19;1870;-62
2024/01/31 00:50:39;;;;;;;;;;;17.50;52.50;;;;;;7395955;19;1859;-62
2024/01/31 00:53:05;;;;;;;;;;;17.50;52.70;;;;;;7396199;19;1557;-61
2024/01/31 00:55:30;;;;;;;;;;;17.50;52.50;;;;;;7398328;19;1501;-62
2024/01/31 00:57:55;;;;;;;;;;;17.50;52.60;;;;;;7394144;19;1543;-62
2024/01/31 01:00:23;;;;;;;;;;;17.40;52.50;;;;;;7395723;19;1820;-62
2024/01/31 01:02:51;;;;;;;;;;;17.40;52.60;;;;;;7398421;19;1424;-62
2024/01/31 01:05:17;;;;;;;;;;;17.40;52.70;;;;;;7395128;19;1502;-62
2024/01/31 01:07:45;;;;;;;;;;;17.40;52.70;;;;;;7395243;19;994;-62
2024/01/31 01:10:14;;;;;;;;;;;17.40;52.70;;;;;;7392652;19;1845;-62
2024/01/31 01:12:39;;;;;;;;;;;17.40;52.70;;;;;;7391973;19;1578;-62
2024/01/31 01:15:05;;;;;;;;;;;17.40;52.80;;;;;;7394542;19;1453;-62
2024/01/31 01:17:31;;;;;;;;;;;17.40;52.70;;;;;;7397455;19;1751;-62
2024/01/31 01:19:56;;;;;;;;;;;17.30;52.70;;;;;;7397425;19;1514;-62
2024/01/31 01:22:22;;;;;;;;;;;17.30;52.70;;;;;;7396383;19;1531;-61
2024/01/31 01:24:47;;;;;;;;;;;17.30;52.70;;;;;;7393382;19;1143;-62
2024/01/31 01:27:13;;;;;;;;;;;17.30;52.70;;;;;;7394736;19;1442;-62
2024/01/31 01:29:38;;;;;;;;;;;17.30;52.70;;;;;;7398534;19;1873;-62
2024/01/31 01:32:03;;;;;;;;;;;17.30;52.70;;;;;;7397084;19;1396;-61
2024/01/31 01:34:29;;;;;;;;;;;17.20;52.70;;;;;;7396950;19;1584;-62
2024/01/31 01:36:54;;;;;;;;;;;17.20;52.70;;;;;;7397287;19;1470;-62
2024/01/31 01:39:20;;;;;;;;;;;17.20;52.70;;;;;;7392862;19;1031;-62
2024/01/31 01:41:48;;;;;;;;;;;17.20;52.70;;;;;;7394493;19;1443;-62
2024/01/31 01:44:14;;;;;;;;;;;17.20;52.70;;;;;;7392956;19;1729;-61
2024/01/31 01:46:39;;;;;;;;;;;17.20;52.70;;;;;;7394762;19;1688;-62
2024/01/31 01:49:05;;;;;;;;;;;17.20;52.70;;;;;;7392250;19;1516;-62
2024/01/31 01:51:30;;;;;;;;;;;17.20;52.70;;;;;;7389470;19;1820;-61
2024/01/31 01:53:56;;;;;;;;;;;17.20;52.70;;;;;;7394035;19;958;-61
2024/01/31 01:56:21;;;;;;;;;;;17.20;52.70;;;;;;7391928;19;1482;-62
2024/01/31 01:58:48;;;;;;;;;;;17.10;52.60;;;;;;7395974;19;1391;-62
2024/01/31 02:01:13;;;;;;;;;;;17.10;52.60;;;;;;7393183;19;1426;-62
2024/01/31 02:03:39;;;;;;;;;;;17.10;52.60;;;;;;7396280;19;1541;-62
2024/01/31 02:06:04;;;;;;;;;;;17.10;52.60;;;;;;7393844;19;1812;-62
2024/01/31 02:08:30;;;;;;;;;;;17.10;52.90;;;;;;7393364;19;870;-62
2024/01/31 02:10:55;;;;;;;;;;;17.10;52.90;;;;;;7395322;19;1845;-62
2024/01/31 02:13:21;;;;;;;;;;;17.20;52.70;;;;;;7391838;19;1562;-61
2024/01/31 02:16:05;;;;;;;;;;;17.20;52.70;;;;;;7395139;19;1759;-61
2024/01/31 02:18:30;;;;;;;;;;;17.20;52.70;;;;;;7393959;19;788;-61
2024/01/31 02:20:56;;;;;;;;;;;17.20;52.60;;;;;;7396208;19;1960;-62
2024/01/31 02:23:22;;;;;;;;;;;17.40;52.50;;;;;;7396368;19;1536;-62
2024/01/31 02:25:47;;;;;;;;;;;17.50;52.20;;;;;;7393780;19;1451;-62
2024/01/31 02:28:12;;;;;;;;;;;17.80;51.80;;;;;;7392412;19;1225;-62
2024/01/31 02:30:38;;;;;;;;;;;18.00;51.20;;;;;;7391904;19;1837;-62
2024/01/31 02:33:03;;;;;;;;;;;18.30;50.70;;;;;;7395271;19;1530;-62
2024/01/31 02:35:32;;;;;;;;;;;18.50;50.30;;;;;;7392287;19;2108;-62
2024/01/31 02:37:58;;;;;;;;;;;18.70;50.00;;;;;;7392187;19;1051;-62
2024/01/31 02:40:23;;;;;;;;;;;18.80;49.70;;;;;;7390929;19;1201;-62
2024/01/31 02:42:49;;;;;;;;;;;18.90;49.50;;;;;;7393215;19;2403;-62
2024/01/31 02:45:14;;;;;;;;;;;18.90;49.20;;;;;;7394386;19;1444;-62
2024/01/31 02:47:40;;;;;;;;;;;19.00;49.10;;;;;;7394882;19;1615;-62
2024/01/31 02:50:05;;;;;;;;;;;19.00;49.10;;;;;;7391396;19;1863;-62
2024/01/31 02:52:31;;;;;;;;;;;19.00;49.10;;;;;;7392506;19;1672;-62
2024/01/31 02:54:58;;;;;;;;;;;19.00;48.90;;;;;;7393690;19;1512;-62
2024/01/31 02:57:24;;;;;;;;;;;19.10;49.00;;;;;;7390866;19;832;-62
2024/01/31 02:59:49;;;;;;;;;;;19.10;49.00;;;;;;7392039;19;1060;-62
2024/01/31 03:02:15;;;;;;;;;;;19.00;49.00;;;;;;7399205;19;1756;-61
2024/01/31 03:04:40;;;;;;;;;;;19.10;49.00;;;;;;7398679;19;1247;-62
2024/01/31 03:07:06;;;;;;;;;;;19.10;48.90;;;;;;7397293;19;1449;-62
2024/01/31 03:09:31;;;;;;;;;;;19.20;48.80;;;;;;7402063;19;1859;-62
2024/01/31 03:11:57;;;;;;;;;;;19.20;48.90;;;;;;7400309;19;1439;-61
2024/01/31 03:14:22;;;;;;;;;;;19.10;49.00;;;;;;7398110;19;1751;-62
2024/01/31 03:16:48;;;;;;;;;;;19.00;48.90;;;;;;7402248;19;1795;-62
2024/01/31 03:19:13;;;;;;;;;;;19.00;49.00;;;;;;7398898;19;1537;-62
2024/01/31 03:21:38;;;;;;;;;;;19.00;48.90;;;;;;7398273;19;1690;-62
2024/01/31 03:24:04;;;;;;;;;;;19.00;48.90;;;;;;7402602;19;1670;-62
2024/01/31 03:26:30;;;;;;;;;;;19.00;48.90;;;;;;7400686;19;1291;-62
2024/01/31 03:28:55;;;;;;;;;;;18.90;49.00;;;;;;7398075;19;1755;-62
2024/01/31 03:31:21;;;;;;;;;;;18.90;49.00;;;;;;7396146;19;1850;-62
2024/01/31 03:33:46;;;;;;;;;;;18.80;49.10;;;;;;7401197;19;1582;-62
2024/01/31 03:36:12;;;;;;;;;;;18.80;49.30;;;;;;7396015;19;1155;-62
2024/01/31 03:38:38;;;;;;;;;;;18.70;49.30;;;;;;7395849;19;1039;-62
2024/01/31 03:41:04;;;;;;;;;;;18.60;49.50;;;;;;7397563;19;1527;-61
2024/01/31 03:43:29;;;;;;;;;;;18.60;49.60;;;;;;7398877;19;1651;-62
2024/01/31 03:45:54;;;;;;;;;;;18.60;49.60;;;;;;7396349;19;1078;-62
2024/01/31 03:48:20;;;;;;;;;;;18.60;49.60;;;;;;7399239;19;1678;-62
2024/01/31 03:50:45;;;;;;;;;;;18.50;49.70;;;;;;7398017;19;1900;-62
2024/01/31 03:53:11;;;;;;;;;;;18.50;49.70;;;;;;7396118;19;1069;-62
2024/01/31 03:55:36;;;;;;;;;;;18.50;49.70;;;;;;7396007;19;800;-62
2024/01/31 03:58:03;;;;;;;;;;;18.50;49.70;;;;;;7397563;19;1555;-62
2024/01/31 04:00:29;;;;;;;;;;;18.50;49.60;;;;;;7399701;19;1805;-62
2024/01/31 04:02:54;;;;;;;;;;;18.60;49.60;;;;;;7397352;19;1173;-62
2024/01/31 04:05:20;;;;;;;;;;;18.60;49.60;;;;;;7398673;19;1661;-62
2024/01/31 04:07:45;;;;;;;;;;;18.60;49.60;;;;;;7396983;19;990;-62
2024/01/31 04:10:11;;;;;;;;;;;18.60;49.60;;;;;;7399067;19;1856;-62
2024/01/31 04:12:36;;;;;;;;;;;18.60;49.60;;;;;;7398671;19;1734;-62
2024/01/31 04:15:01;;;;;;;;;;;18.60;49.50;;;;;;7399504;19;1756;-62
2024/01/31 04:17:27;;;;;;;;;;;18.60;49.50;;;;;;7397458;19;1057;-62
2024/01/31 04:19:52;;;;;;;;;;;18.70;49.20;;;;;;7397460;19;1436;-62
2024/01/31 04:22:18;;;;;;;;;;;18.70;49.20;;;;;;7394184;19;872;-61
2024/01/31 04:24:44;;;;;;;;;;;18.80;49.20;;;;;;7397798;19;1720;-62
2024/01/31 04:27:10;;;;;;;;;;;18.80;49.20;;;;;;7398196;19;1644;-62
2024/01/31 04:29:37;;;;;;;;;;;18.80;49.30;;;;;;7397726;19;1846;-62
2024/01/31 04:32:03;;;;;;;;;;;18.80;49.20;;;;;;7399375;19;975;-62
2024/01/31 04:34:29;;;;;;;;;;;18.80;49.30;;;;;;7396132;19;998;-62
2024/01/31 04:36:54;;;;;;;;;;;18.70;49.50;;;;;;7397817;19;1520;-62
2024/01/31 04:39:20;;;;;;;;;;;18.50;50.20;;;;;;7395226;19;1784;-62
2024/01/31 04:41:47;;;;;;;;;;;18.50;49.60;;;;;;7394525;19;1650;-62
2024/01/31 04:44:12;;;;;;;;;;;18.50;49.60;;;;;;7394343;19;2096;-62
2024/01/31 04:46:37;;;;;;;;;;;18.60;49.40;;;;;;7399682;19;1509;-62
2024/01/31 04:49:03;;;;;;;;;;;18.70;49.30;;;;;;7394133;19;887;-62
2024/01/31 04:51:28;;;;;;;;;;;18.70;49.30;;;;;;7395741;19;1841;-62
2024/01/31 04:53:54;;;;;;;;;;;18.70;49.20;;;;;;7396174;19;1556;-62
2024/01/31 04:56:19;;;;;;;;;;;18.70;49.30;;;;;;7398113;19;1434;-62
2024/01/31 04:58:45;;;;;;;;;;;18.70;49.30;;;;;;7394293;19;1397;-61
2024/01/31 05:01:10;;;;;;;;;;;18.80;49.30;;;;;;7396254;19;939;-62
2024/01/31 05:03:35;;;;;;;;;;;18.80;49.30;;;;;;7394144;19;1553;-62
2024/01/31 05:06:01;;;;;;;;;;;18.70;49.20;;;;;;7393684;19;1449;-62
2024/01/31 05:08:28;;;;;;;;;;;18.80;49.20;;;;;;7393320;19;1105;-62
2024/01/31 05:10:54;;;;;;;;;;;18.80;49.10;;;;;;7392526;19;1842;-62
2024/01/31 05:13:19;;;;;;;;;;;18.80;49.00;;;;;;7394733;19;1538;-62
2024/01/31 05:15:44;;;;;;;;;;;18.80;49.00;;;;;;7396895;19;1655;-62
2024/01/31 05:18:11;;;;;;;;;;;18.80;48.90;;;;;;7393425;19;806;-62
2024/01/31 05:20:37;;;;;;;;;;;18.80;48.80;;;;;;7394048;19;1524;-62
2024/01/31 05:23:02;;;;;;;;;;;18.80;49.00;;;;;;7394036;19;939;-62
2024/01/31 05:25:28;;;;;;;;;;;18.80;49.00;;;;;;7396653;19;1458;-62
2024/01/31 05:27:54;;;;;;;;;;;18.80;49.00;;;;;;7394649;19;991;-62
2024/01/31 05:30:20;;;;;;;;;;;18.80;49.00;;;;;;7397087;19;1850;-62
2024/01/31 05:32:46;;;;;;;;;;;18.80;49.10;;;;;;7397876;19;1186;-62
2024/01/31 05:35:12;;;;;;;;;;;18.80;49.10;;;;;;7394942;19;1631;-62
2024/01/31 05:37:37;;;;;;;;;;;18.80;49.10;;;;;;7398262;19;1583;-62
2024/01/31 05:40:04;;;;;;;;;;;18.80;49.00;;;;;;7392651;19;1590;-62
2024/01/31 05:42:29;;;;;;;;;;;18.80;48.90;;;;;;7396931;19;2203;-62
2024/01/31 05:44:56;;;;;;;;;;;18.80;48.90;;;;;;7391985;19;1015;-62
2024/01/31 05:47:21;;;;;;;;;;;18.90;48.80;;;;;;7392479;19;1384;-62
2024/01/31 05:49:47;;;;;;;;;;;18.80;48.80;;;;;;7393744;19;1834;-62
2024/01/31 05:52:12;;;;;;;;;;;18.80;49.00;;;;;;7393772;19;1576;-62
2024/01/31 05:54:38;;;;;;;;;;;18.70;48.80;;;;;;7393514;19;891;-62
2024/01/31 05:57:04;;;;;;;;;;;18.80;49.10;;;;;;7392525;19;1670;-62
2024/01/31 05:59:29;;;;;;;;;;;18.80;48.80;;;;;;7396060;19;1670;-62
2024/01/31 06:01:55;;;;;;;;;;;18.80;48.90;;;;;;7395746;19;1594;-62
2024/01/31 06:04:20;;;;;;;;;;;18.80;48.80;;;;;;7393804;19;1090;-62
2024/01/31 06:06:46;;;;;;;;;;;18.80;48.80;;;;;;7391903;19;1468;-62
2024/01/31 06:09:12;;;;;;;;;;;18.70;48.70;;;;;;7393493;19;800;-62
2024/01/31 06:11:38;;;;;;;;;;;18.70;48.80;;;;;;7389514;19;1856;-62
2024/01/31 06:14:03;;;;;;;;;;;18.80;48.70;;;;;;7397424;19;1653;-62
2024/01/31 06:16:29;;;;;;;;;;;18.80;48.60;;;;;;7396208;19;1482;-62
2024/01/31 06:18:55;;;;;;;;;;;18.80;48.70;;;;;;7396393;19;1428;-62
2024/01/31 06:21:20;;;;;;;;;;;18.80;48.70;;;;;;7392159;19;1565;-62
2024/01/31 06:23:46;;;;;;;;;;;18.80;48.70;;;;;;7392871;19;799;-62
2024/01/31 06:26:12;;;;;;;;;;;18.70;48.60;;;;;;7392467;19;1764;-62
2024/01/31 06:28:38;;;;;;;;;;;18.70;48.70;;;;;;7391294;19;1130;-62
2024/01/31 06:31:13;;;;;;;;;;;18.80;48.70;;;;;;7393918;19;1850;-62
2024/01/31 06:33:42;;;;;;;;;;;18.90;48.60;;;;;;7391019;19;1219;-62
2024/01/31 06:36:08;;;;;;;;;;;18.90;48.40;;;;;;7394036;19;1553;-62
2024/01/31 06:38:33;;;;;;;;;;;19.00;48.30;;;;;;7401778;19;1672;-62
2024/01/31 06:40:59;;;;;;;;;;;19.00;48.20;;;;;;7398026;19;1268;-62
2024/01/31 06:43:27;;;;;;;;;;;19.00;48.10;;;;;;7404707;19;1633;-62
2024/01/31 06:45:53;;;;;;;;;;;19.00;48.00;;;;;;7399055;19;1929;-62
2024/01/31 06:48:19;;;;;;;;;;;19.10;48.10;;;;;;7398168;19;907;-62
2024/01/31 06:50:44;;;;;;;;;;;19.10;48.00;;;;;;7397483;19;2160;-62
2024/01/31 06:53:10;;;;;;;;;;;19.10;48.00;;;;;;7402318;19;1539;-62
2024/01/31 06:55:35;;;;;;;;;;;19.10;47.90;;;;;;7399448;19;998;-62
2024/01/31 06:58:01;;;;;;;;;;;19.10;47.80;;;;;;7402671;19;1996;-62
2024/01/31 07:00:26;;;;;;;;;;;19.10;48.00;;;;;;7397241;19;963;-62
2024/01/31 07:02:53;;;;;;;;;;;19.20;48.00;;;;;;7398587;19;1144;-61
2024/01/31 07:05:18;;;;;;;;;;;19.20;47.90;;;;;;7401122;19;1420;-61
2024/01/31 07:07:44;;;;;;;;;;;19.20;47.90;;;;;;7401578;19;1828;-61
2024/01/31 07:10:09;;;;;;;;;;;19.10;48.00;;;;;;7397388;19;1834;-61
2024/01/31 07:12:35;;;;;;;;;;;19.00;47.90;;;;;;7392980;19;1502;-61
2024/01/31 07:15:00;;;;;;;;;;;19.00;48.00;;;;;;7397955;19;1391;-61
2024/01/31 07:17:26;;;;;;;;;;;19.00;48.00;;;;;;7397076;19;983;-61
2024/01/31 07:19:51;;;;;;;;;;;19.00;48.00;;;;;;7397171;19;892;-61
2024/01/31 07:22:16;;;;;;;;;;;18.90;48.00;;;;;;7400890;19;1527;-61
2024/01/31 07:24:43;;;;;;;;;;;18.90;48.30;;;;;;7397999;19;959;-61
2024/01/31 07:27:09;;;;;;;;;;;18.90;48.20;;;;;;7401354;19;1421;-61
2024/01/31 07:29:34;;;;;;;;;;;18.90;48.20;;;;;;7402283;19;1842;-61
2024/01/31 07:32:00;;;;;;;;;;;18.90;48.10;;;;;;7399934;19;1445;-61
2024/01/31 07:34:25;;;;;;;;;;;18.90;48.20;;;;;;7400012;19;1662;-61
2024/01/31 07:36:50;;;;;;;;;;;18.90;48.20;;;;;;7396129;19;1426;-61
2024/01/31 07:39:16;;;;;;;;;;;18.90;48.00;;;;;;7395042;19;1113;-61
2024/01/31 07:41:44;;;;;;;;;;;18.90;47.90;;;;;;7397658;19;891;-61
2024/01/31 07:44:10;;;;;;;;;;;19.00;47.90;;;;;;7401083;19;1579;-60
2024/01/31 07:46:35;;;;;;;;;;;19.00;47.90;;;;;;7395535;19;1498;-60
2024/01/31 07:49:01;;;;;;;;;;;19.00;47.90;;;;;;7396429;19;763;-61
2024/01/31 07:51:26;;;;;;;;;;;18.90;47.80;;;;;;7393972;19;1873;-61
2024/01/31 07:53:51;;;;;;;;;;;18.90;47.80;;;;;;7399993;19;1447;-62
2024/01/31 07:56:17;;;;;;;;;;;18.90;48.00;;;;;;7399825;19;1618;-62
2024/01/31 07:58:42;;;;;;;;;;;18.90;48.20;;;;;;7399273;19;1626;-62
2024/01/31 08:01:08;;;;;;;;;;;18.80;48.10;;;;;;7399557;19;1546;-61
2024/01/31 08:03:38;;;;;;;;;;;18.80;48.20;;;;;;7396360;19;843;-61
2024/01/31 08:06:05;;;;;;;;;;;18.70;48.20;;;;;;7394473;19;887;-61
2024/01/31 08:08:30;;;;;;;;;;;18.70;48.30;;;;;;7398870;19;1524;-61
2024/01/31 08:10:57;;;;;;;;;;;18.80;48.40;;;;;;7394845;19;1845;-61
2024/01/31 08:13:24;;;;;;;;;;;18.80;48.20;;;;;;7398392;19;1655;-62
2024/01/31 08:15:50;;;;;;;;;;;18.90;48.20;;;;;;7398127;19;1633;-62
2024/01/31 08:18:15;;;;;;;;;;;18.90;48.20;;;;;;7387489;19;2920;-62
2024/01/31 08:20:40;;;;;;;;;;;18.80;48.20;;;;;;7396206;19;2324;-61
2024/01/31 08:23:06;;;;;;;;;;;18.80;48.40;;;;;;7397400;19;1563;-62
2024/01/31 08:25:32;;;;;;;;;;;18.80;48.60;;;;;;7398328;19;2331;-61
2024/01/31 08:27:57;;;;;;;;;;;18.80;48.90;;;;;;7397047;19;1599;-61
2024/01/31 08:30:22;;;;;;;;;;;18.80;48.90;;;;;;7396642;19;1842;-61
2024/01/31 08:32:48;;;;;;;;;;;18.80;48.80;;;;;;7399681;19;1587;-62
2024/01/31 08:35:13;;;;;;;;;;;18.90;48.70;;;;;;7398791;19;1680;-62
2024/01/31 08:37:39;;;;;;;;;;;18.90;48.40;;;;;;7398393;19;2935;-62
2024/01/31 08:40:06;;;;;;;;;;;19.00;48.50;;;;;;7398304;19;1399;-62
2024/01/31 08:42:33;;;;;;;;;;;19.00;48.40;;;;;;7398715;19;1744;-61
2024/01/31 08:44:58;;;;;;;;;;;19.00;48.30;;;;;;7397523;19;1651;-62
2024/01/31 08:47:24;;;;;;;;;;;19.00;48.40;;;;;;7394848;19;1862;-62
2024/01/31 08:49:49;;;;;;;;;;;19.00;48.30;;;;;;7394894;19;1857;-62
2024/01/31 08:52:15;;;;;;;;;;;18.90;48.20;;;;;;7395612;19;2606;-62
2024/01/31 08:54:40;;;;;;;;;;;18.90;48.40;;;;;;7398069;19;1916;-61
2024/01/31 08:57:06;;;;;;;;;;;18.80;48.50;;;;;;7395843;19;1643;-61
2024/01/31 08:59:31;;;;;;;;;;;18.80;48.60;;;;;;7393178;19;1617;-61
2024/01/31 09:01:57;;;;;;;;;;;18.90;48.70;;;;;;7396880;19;2040;-62
2024/01/31 09:04:22;;;;;;;;;;;18.90;48.50;;;;;;7396435;19;1627;-62
2024/01/31 09:06:47;;;;;;;;;;;18.90;48.40;;;;;;7394691;19;1643;-61
2024/01/31 09:09:13;;;;;;;;;;;19.00;48.30;;;;;;7397070;19;1472;-62
2024/01/31 09:11:38;;;;;;;;;;;19.00;48.20;;;;;;7393974;19;1921;-61
2024/01/31 09:14:04;;;;;;;;;;;18.90;48.10;;;;;;7396875;19;2040;-62
2024/01/31 09:16:30;;;;;;;;;;;19.00;48.40;;;;;;7396177;19;1622;-62
2024/01/31 09:18:56;;;;;;;;;;;19.00;48.40;;;;;;7394743;19;1669;-62
2024/01/31 09:21:22;;;;;;;;;;;18.90;48.30;;;;;;7396599;19;1639;-62
2024/01/31 09:23:47;;;;;;;;;;;19.00;48.30;;;;;;7396784;19;1529;-61
2024/01/31 09:26:13;;;;;;;;;;;19.10;48.20;;;;;;7395882;19;1940;-63
2024/01/31 09:28:39;;;;;;;;;;;19.10;48.00;;;;;;7397459;19;1604;-62
2024/01/31 09:31:04;;;;;;;;;;;19.20;48.00;;;;;;7394546;19;1861;-62
2024/01/31 09:33:30;;;;;;;;;;;19.10;47.80;;;;;;7397025;19;1919;-61
2024/01/31 09:35:55;;;;;;;;;;;19.10;47.80;;;;;;7393306;19;1659;-62
2024/01/31 09:38:25;;;;;;;;;;;19.10;47.70;;;;;;7394997;19;1433;-62
2024/01/31 09:40:51;;;;;;;;;;;19.20;47.90;;;;;;7393052;19;1734;-61
2024/01/31 09:43:16;;;;;;;;;;;19.20;48.00;;;;;;7396174;19;1815;-61
2024/01/31 09:45:41;;;;;;;;;;;19.10;47.70;;;;;;7395211;19;1668;-61
2024/01/31 09:48:07;;;;;;;;;;;19.20;47.80;;;;;;7394474;19;1851;-62
2024/01/31 09:50:32;;;;;;;;;;;19.20;47.70;;;;;;7391719;19;2799;-62
2024/01/31 09:52:58;;;;;;;;;;;19.20;47.70;;;;;;7391574;19;2871;-62
2024/01/31 09:55:23;;;;;;;;;;;19.10;47.70;;;;;;7392082;19;1702;-63
2024/01/31 09:57:49;;;;;;;;;;;19.10;47.80;;;;;;7393989;19;2679;-62
2024/01/31 10:00:14;;;;;;;;;;;19.10;47.70;;;;;;7394096;19;1396;-62
2024/01/31 10:02:40;;;;;;;;;;;19.20;47.70;;;;;;7395300;19;1834;-62
2024/01/31 10:05:06;;;;;;;;;;;19.20;47.60;;;;;;7394336;19;1395;-62
2024/01/31 10:07:32;;;;;;;;;;;19.10;47.40;;;;;;7395227;19;1282;-62
2024/01/31 10:09:57;;;;;;;;;;;19.10;47.60;;;;;;7391241;19;2610;-62
2024/01/31 10:12:23;;;;;;;;;;;19.20;47.50;;;;;;7393698;19;1770;-62
2024/01/31 10:14:48;;;;;;;;;;;19.20;47.70;;;;;;7394182;19;1621;-62
2024/01/31 10:17:14;;;;;;;;;;;19.10;47.50;;;;;;7394938;19;2000;-61
2024/01/31 10:19:39;;;;;;;;;;;19.10;47.40;;;;;;7394473;19;1406;-62
2024/01/31 10:22:05;;;;;;;;;;;19.20;47.40;;;;;;7393442;19;1636;-62
2024/01/31 10:24:31;;;;;;;;;;;19.20;47.50;;;;;;7394552;19;1609;-62
2024/01/31 10:26:57;;;;;;;;;;;19.20;47.50;;;;;;7392405;19;1690;-62
2024/01/31 10:29:22;;;;;;;;;;;19.20;47.40;;;;;;7393603;19;1809;-62
2024/01/31 10:31:49;;;;;;;;;;;19.20;47.40;;;;;;7388645;19;1880;-62
2024/01/31 10:34:15;;;;;;;;;;;19.20;47.30;;;;;;7392824;19;1639;-62
2024/01/31 10:36:40;;;;;;;;;;;19.20;47.30;;;;;;7388371;19;1606;-62
2024/01/31 10:39:07;;;;;;;;;;;19.10;47.30;;;;;;7392335;19;1539;-62
2024/01/31 10:41:32;;;;;;;;;;;19.10;47.40;;;;;;7393755;19;1599;-62
2024/01/31 10:43:58;;;;;;;;;;;19.20;48.00;;;;;;7395440;19;1592;-62
2024/01/31 10:46:23;;;;;;;;;;;19.90;47.40;;;;;;7393480;19;2288;-62
2024/01/31 10:48:49;;;;;;;;;;;20.50;46.20;;;;;;7390641;19;1949;-62
2024/01/31 10:51:14;;;;;;;;;;;21.10;45.30;;;;;;7390803;19;1862;-63
2024/01/31 10:53:39;;;;;;;;;;;21.30;44.40;;;;;;7394378;19;1528;-63
2024/01/31 10:56:05;;;;;;;;;;;21.60;44.00;;;;;;7391285;19;1684;-62
2024/01/31 10:58:31;;;;;;;;;;;21.70;43.80;;;;;;7393224;19;1616;-62
2024/01/31 11:00:56;;;;;;;;;;;21.70;43.60;;;;;;7393321;19;1609;-62
2024/01/31 11:03:22;;;;;;;;;;;21.80;43.50;;;;;;7390747;19;1833;-62
2024/01/31 11:05:49;;;;;;;;;;;21.90;43.30;;;;;;7392247;19;1676;-62
2024/01/31 11:08:18;;;;;;;;;;;22.00;43.10;;;;;;7392593;19;1492;-62
2024/01/31 11:10:44;;;;;;;;;;;22.00;43.00;;;;;;7391797;19;2896;-62
2024/01/31 11:13:09;;;;;;;;;;;22.00;42.90;;;;;;7392365;19;1807;-62
2024/01/31 11:15:35;;;;;;;;;;;22.10;42.80;;;;;;7393073;19;1579;-63
2024/01/31 11:18:10;;;;;;;;;;;22.10;42.70;;;;;;7393680;19;1580;-63
2024/01/31 11:20:39;;;;;;;;;;;22.10;42.70;;;;;;7393871;19;1727;-63
2024/01/31 11:23:05;;;;;;;;;;;22.10;42.80;;;;;;7399278;19;1448;-63
2024/01/31 11:25:32;;;;;;;;;;;22.10;42.70;;;;;;7399520;19;1832;-63
2024/01/31 11:27:57;;;;;;;;;;;22.10;42.40;;;;;;7396298;19;2762;-63
2024/01/31 11:30:23;;;;;;;;;;;22.10;42.40;;;;;;7396541;19;3483;-62
2024/01/31 11:32:48;;;;;;;;;;;22.10;42.60;;;;;;7400897;19;1735;-63
2024/01/31 11:35:14;;;;;;;;;;;21.90;42.90;;;;;;7400082;19;3200;-63
2024/01/31 11:37:39;;;;;;;;;;;21.90;43.00;;;;;;7399847;19;1452;-63
2024/01/31 11:40:06;;;;;;;;;;;21.80;42.90;;;;;;7394945;19;1686;-63
2024/01/31 11:42:32;;;;;;;;;;;21.90;43.10;;;;;;7399457;19;1752;-63
2024/01/31 11:44:57;;;;;;;;;;;21.90;43.10;;;;;;7400209;19;1567;-63
2024/01/31 11:47:23;;;;;;;;;;;21.90;43.10;;;;;;7398989;19;2999;-63
2024/01/31 11:49:48;;;;;;;;;;;21.90;42.80;;;;;;7394616;19;1842;-62
2024/01/31 11:52:13;;;;;;;;;;;21.90;42.80;;;;;;7396651;19;1705;-62
2024/01/31 11:54:39;;;;;;;;;;;21.90;42.80;;;;;;7398946;19;1947;-62
2024/01/31 11:57:05;;;;;;;;;;;21.90;42.90;;;;;;7396517;19;1477;-62
2024/01/31 11:59:31;;;;;;;;;;;21.80;42.70;;;;;;7399533;19;1431;-63
2024/01/31 12:01:56;;;;;;;;;;;21.80;43.00;;;;;;7398462;19;1888;-63
2024/01/31 12:04:25;;;;;;;;;;;21.80;42.90;;;;;;7398896;19;1663;-63
2024/01/31 12:06:50;;;;;;;;;;;21.90;42.60;;;;;;7399541;19;1496;-63
2024/01/31 12:09:16;;;;;;;;;;;21.90;42.80;;;;;;7396241;19;1533;-63
2024/01/31 12:11:41;;;;;;;;;;;21.90;42.80;;;;;;7396807;19;1850;-62
2024/01/31 12:14:07;;;;;;;;;;;21.80;42.60;;;;;;7399545;19;1921;-62
2024/01/31 12:16:40;;;;;;;;;;;21.80;42.90;;;;;;7398544;19;1688;-62
2024/01/31 12:19:05;;;;;;;;;;;21.90;42.80;;;;;;7398371;19;1624;-62
2024/01/31 12:21:41;;;;;;;;;;;21.90;42.60;;;;;;7395827;19;1556;-62
2024/01/31 12:24:07;;;;;;;;;;;22.00;42.50;;;;;;7398282;19;2304;-62
2024/01/31 12:26:32;;;;;;;;;;;22.00;42.20;;;;;;7397608;19;1674;-62
2024/01/31 12:28:57;;;;;;;;;;;22.10;42.40;;;;;;7399985;19;1669;-62
2024/01/31 12:31:23;;;;;;;;;;;22.00;42.30;;;;;;7394420;19;1854;-62
2024/01/31 12:33:48;;;;;;;;;;;22.00;42.30;;;;;;7399056;19;871;-62
2024/01/31 12:36:14;;;;;;;;;;;22.00;42.30;;;;;;7396952;19;2012;-62
2024/01/31 12:38:39;;;;;;;;;;;22.10;42.20;;;;;;7392125;19;1670;-63
2024/01/31 12:41:05;;;;;;;;;;;22.10;42.80;;;;;;7398907;19;1805;-62
2024/01/31 12:43:30;;;;;;;;;;;22.10;42.20;;;;;;7395926;19;912;-62
2024/01/31 12:45:56;;;;;;;;;;;22.20;42.10;;;;;;7397573;19;1661;-62
2024/01/31 12:48:21;;;;;;;;;;;22.20;42.00;;;;;;7392768;19;1999;-62
2024/01/31 12:50:46;;;;;;;;;;;22.20;41.90;;;;;;7395767;19;1865;-63
2024/01/31 12:53:12;;;;;;;;;;;22.20;41.90;;;;;;7393698;19;979;-62
2024/01/31 12:55:37;;;;;;;;;;;22.20;41.80;;;;;;7395974;19;1708;-62
2024/01/31 12:58:03;;;;;;;;;;;22.20;41.80;;;;;;7393944;19;1639;-62
2024/01/31 13:00:28;;;;;;;;;;;22.20;41.80;;;;;;7396441;19;1692;-62
2024/01/31 13:02:53;;;;;;;;;;;22.10;41.90;;;;;;7396898;19;1679;-62
2024/01/31 13:05:19;;;;;;;;;;;22.10;41.90;;;;;;7396932;19;2011;-62
2024/01/31 13:07:44;;;;;;;;;;;22.10;41.90;;;;;;7396419;19;1602;-62
2024/01/31 13:10:10;;;;;;;;;;;22.10;41.90;;;;;;7397627;19;1861;-62
2024/01/31 13:12:35;;;;;;;;;;;22.10;41.70;;;;;;7395040;19;1707;-62
2024/01/31 13:15:01;;;;;;;;;;;22.00;41.90;;;;;;7396725;19;1956;-62
2024/01/31 13:17:26;;;;;;;;;;;22.10;41.90;;;;;;7395292;19;1611;-62
2024/01/31 13:19:51;;;;;;;;;;;22.10;41.70;;;;;;7395450;19;1886;-62
2024/01/31 13:22:17;;;;;;;;;;;22.00;41.90;;;;;;7395758;19;2052;-63
2024/01/31 13:24:42;;;;;;;;;;;22.10;41.90;;;;;;7395735;19;1607;-62
2024/01/31 13:27:08;;;;;;;;;;;22.20;41.80;;;;;;7393117;19;782;-62
2024/01/31 13:29:33;;;;;;;;;;;22.10;42.50;;;;;;7396583;19;1730;-62
2024/01/31 13:31:59;;;;;;;;;;;22.10;41.80;;;;;;7393710;19;1845;-62
2024/01/31 13:34:24;;;;;;;;;;;22.10;41.80;;;;;;7393112;19;829;-63
2024/01/31 13:36:53;;;;;;;;;;;22.00;41.80;;;;;;7394755;19;1677;-62
2024/01/31 13:39:18;;;;;;;;;;;22.00;41.80;;;;;;7389696;19;1646;-61
2024/01/31 13:41:43;;;;;;;;;;;22.10;41.80;;;;;;7396100;19;1506;-62
2024/01/31 13:44:09;;;;;;;;;;;22.20;41.80;;;;;;7391202;19;808;-62
2024/01/31 13:46:37;;;;;;;;;;;22.30;41.70;;;;;;7391986;19;1620;-63
2024/01/31 13:49:03;;;;;;;;;;;22.30;41.30;;;;;;7393417;19;950;-63
2024/01/31 13:51:28;;;;;;;;;;;22.40;41.40;;;;;;7393117;19;1838;-63
2024/01/31 13:53:54;;;;;;;;;;;22.50;41.30;;;;;;7397845;19;1455;-63
2024/01/31 13:56:19;;;;;;;;;;;22.40;41.50;;;;;;7395547;19;1670;-64
2024/01/31 13:58:44;;;;;;;;;;;22.40;41.40;;;;;;7395509;19;852;-63
2024/01/31 14:01:10;;;;;;;;;;;22.40;41.40;;;;;;7393183;19;1462;-62
2024/01/31 14:03:35;;;;;;;;;;;22.40;41.40;;;;;;7395245;19;1675;-62
2024/01/31 14:06:01;;;;;;;;;;;22.40;41.40;;;;;;7389948;19;804;-62
2024/01/31 14:08:26;;;;;;;;;;;22.40;41.40;;;;;;7396115;19;1800;-62
2024/01/31 14:10:52;;;;;;;;;;;22.40;41.40;;;;;;7393139;19;1850;-61
2024/01/31 14:13:17;;;;;;;;;;;22.30;41.20;;;;;;7394347;19;1634;-60
2024/01/31 14:15:42;;;;;;;;;;;22.40;41.40;;;;;;7392785;19;1496;-61
2024/01/31 14:18:08;;;;;;;;;;;22.30;41.30;;;;;;7392975;19;1641;-61
2024/01/31 14:20:34;;;;;;;;;;;22.40;41.20;;;;;;7390036;19;1713;-61
2024/01/31 14:22:59;;;;;;;;;;;22.40;41.10;;;;;;7393684;19;1912;-61